M I D A S
Marine Information and Data Acquisition System
Tripno 1083 of the Zeeleeuw from 2006-05-15 11:44:25 to 2006-05-15 13:55:33
Back to CruiseResearch ActivitiesStationsMapUnderway DataData graphs

EquipmentUnitsComment
TimeDGPSUTC
LatitudeDGPSDM.mWGS84
LongitudeDGPSDM.mWGS84
TemperatureSBE03/SBE38deg celciusITS90
ConductivitySBE21S/mITS90
SalinitySBE21 Practical Salinity Units
ChlorophylAChelsea fluorimeterg/lCalibrated in Aceton
Missing or incorrect values are displayed as -999
Sea surface data collected by the RV Zeeleeuw from 2006-05-15 07:32:01 to 2006-05-15 14:08:45
Time Latitude Longitude Temperature Conductivity Salinity ChlorophylA
2006-05-15 07:33:05 51°13.6 2°56.099 20.1524 0.004359 0.027285 11.320426
2006-05-15 07:34:05 51°13.6 2°56.099 20.1523 0.004359 0.027286 11.354136
2006-05-15 07:35:05 51°13.599 2°56.098 20.1053 0.004359 0.027286 11.320426
2006-05-15 07:36:05 51°13.599 2°56.095 19.8613 0.004359 0.027287 11.286717
2006-05-15 07:37:05 51°13.613 2°56.005 19.9864 0.004359 0.027287 11.320426
2006-05-15 07:38:05 51°13.635 2°55.905 20.0497 0.004359 0.027288 11.320426
2006-05-15 07:39:05 51°13.676 2°55.824 20.0518 0.004359 0.027288 11.320426
2006-05-15 07:40:05 51°13.732 2°55.748 20.0528 0.004359 0.027288 11.320426
2006-05-15 07:41:05 51°13.751 2°55.723 19.7062 0.004359 0.027289 11.286717
2006-05-15 07:42:05 51°13.744 2°55.692 19.7693 0.004359 0.027289 11.320426
2006-05-15 07:43:05 51°13.755 2°55.684 19.5766 0.004359 0.02729 11.286717
2006-05-15 07:44:05 51°13.799 2°55.665 19.5656 0.004359 0.02729 11.286717
2006-05-15 07:45:05 51°13.877 2°55.604 19.5191 0.004359 0.02729 11.320426
2006-05-15 07:46:05 51°13.977 2°55.534 19.6096 0.004359 0.02729 11.286717
2006-05-15 07:47:05 51°14.078 2°55.453 19.6709 0.004255 0.026849 11.286717
2006-05-15 07:48:04 51°14.176 2°55.361 19.721 0.004255 0.02685 11.320426
2006-05-15 07:49:05 51°14.277 2°55.224 19.6811 0.004359 0.027291 11.320426
2006-05-15 07:50:05 51°14.374 2°55.055 19.7509 0.004255 0.02685 11.354136
2006-05-15 07:51:05 51°14.436 2°54.849 19.7263 0.004359 0.027292 11.286717
2006-05-15 07:52:05 51°14.478 2°54.569 19.5583 0.004359 0.027292 11.286717
2006-05-15 07:53:04 51°14.547 2°54.238 19.6087 0.004255 0.026851 11.286717
2006-05-15 07:54:05 51°14.61 2°53.883 19.6509 0.004255 0.026851 11.286717
2006-05-15 07:55:05 51°14.651 2°53.538 19.5709 0.004359 0.027294 11.286717
2006-05-15 07:56:05 51°14.649 2°53.186 19.5952 0.004255 0.026853 11.286717
2006-05-15 07:57:05 51°14.643 2°52.828 19.6075 0.004255 0.026853 11.320426
2006-05-15 07:58:05 51°14.599 2°52.466 19.5602 0.004255 0.026854 11.320426
2006-05-15 07:59:04 51°14.554 2°52.109 14.3187 0.004359 0.027309 11.320426
2006-05-15 08:00:05 51°14.538 2°51.735 13.8675 3.915139 31.888778 12.331708
2006-05-15 08:01:05 51°14.501 2°51.369 13.8319 3.955613 32.666436 12.365418
2006-05-15 08:02:05 51°14.457 2°51.005 13.7547 3.935696 32.531678 12.062033
2006-05-15 08:03:05 51°14.407 2°50.64 13.7443 3.94887 32.726764 12.500255
2006-05-15 08:04:05 51°14.353 2°50.275 13.711 3.953507 32.792538 12.601383
2006-05-15 08:05:05 51°14.309 2°49.904 13.6904 3.962782 32.924398 13.275571
2006-05-15 08:06:05 51°14.243 2°49.537 13.7095 3.952454 32.830058 13.309281
2006-05-15 08:07:05 51°14.181 2°49.167 13.7048 3.964363 32.939043 13.511537
2006-05-15 08:08:05 51°14.119 2°48.799 13.6535 3.95551 32.868235 13.477828
2006-05-15 08:09:05 51°14.053 2°48.432 13.639 3.970792 33.051571 13.646375
2006-05-15 08:10:05 51°14.021 2°48.129 13.6215 3.973849 33.094551 13.848631
2006-05-15 08:11:05 51°13.988 2°48.003 13.6422 3.97016 33.066935 13.814922
2006-05-15 08:12:05 51°13.983 2°47.978 13.6188 3.973111 33.084379 14.050888
2006-05-15 08:13:05 51°13.975 2°47.953 13.5985 3.97406 33.118451 14.48911
2006-05-15 08:14:05 51°13.966 2°47.926 13.583 3.980383 33.193232 14.792494
2006-05-15 08:15:05 51°13.957 2°47.897 13.5699 3.983545 33.240684 15.230717
2006-05-15 08:16:05 51°13.949 2°47.867 13.5643 3.972269 33.136424 15.466683
2006-05-15 08:17:05 51°13.94 2°47.836 13.5728 3.974482 33.161683 15.736358
2006-05-15 08:18:05 51°13.932 2°47.804 13.5917 3.984599 33.243805 15.938614
2006-05-15 08:19:05 51°13.923 2°47.769 13.628 3.983334 33.21734 16.107161
2006-05-15 08:20:05 51°13.915 2°47.734 13.6427 3.982069 33.182234 16.275708
2006-05-15 08:21:05 51°13.907 2°47.697 13.6583 3.981542 33.160022 16.477965
2006-05-15 08:22:05 51°13.898 2°47.659 13.6913 3.981436 33.148397 16.71393
2006-05-15 08:23:05 51°13.889 2°47.621 13.7484 3.981963 33.12604 16.882477
2006-05-15 08:24:05 51°13.88 2°47.581 13.7304 3.984597 33.104039 17.219571
2006-05-15 08:25:05 51°13.881 2°47.484 13.6051 3.987021 33.169654 17.691503
2006-05-15 08:26:05 51°13.956 2°47.409 13.6266 3.986285 33.234099 18.702785
2006-05-15 08:27:05 51°14.017 2°47.49 13.6177 3.979434 33.163078 18.938751
2006-05-15 08:28:05 51°14.009 2°47.607 13.6033 3.975324 33.13087 18.938751
2006-05-15 08:29:05 51°13.987 2°47.694 13.6257 3.972268 33.115774 19.444392
2006-05-15 08:30:05 51°13.958 2°47.762 13.6209 3.972163 33.097497 19.680358
2006-05-15 08:31:05 51°13.92 2°47.818 13.5956 3.971741 33.099565 20.11858
2006-05-15 08:32:05 51°13.895 2°47.874 13.6239 3.973322 33.122243 19.916324
2006-05-15 08:33:05 51°13.884 2°47.934 13.6269 3.977221 33.141844 19.848905
2006-05-15 08:34:05 51°13.897 2°47.999 13.614 3.981437 33.181023 19.882614
2006-05-15 08:35:05 51°13.92 2°48.068 13.5954 3.968264 33.074556 20.455674
2006-05-15 08:36:05 51°13.943 2°48.139 13.5976 3.975535 33.156147 20.860187
2006-05-15 08:37:05 51°13.966 2°48.21 13.6104 3.964364 33.038318 20.927606
2006-05-15 08:38:04 51°13.989 2°48.277 13.6152 3.983123 33.203367 21.062443
2006-05-15 08:39:05 51°14.013 2°48.344 13.6023 3.98502 33.223675 21.534375
2006-05-15 08:40:05 51°14.036 2°48.412 13.585 3.985758 33.245901 22.242272
2006-05-15 08:41:05 51°14.061 2°48.477 13.6096 3.977959 33.181362 22.511947
2006-05-15 08:42:05 51°14.091 2°48.536 13.6262 3.975746 33.138118 22.107435
2006-05-15 08:43:05 51°14.122 2°48.592 13.633 3.973743 33.107531 21.770341
2006-05-15 08:44:05 51°14.153 2°48.647 13.6413 3.961097 32.984097 21.365828
2006-05-15 08:45:05 51°14.183 2°48.7 13.6259 3.962572 33.00111 21.332118
2006-05-15 08:46:05 51°14.212 2°48.754 13.5988 3.960781 33.001043 21.23099
2006-05-15 08:47:05 51°14.241 2°48.808 13.6031 3.951718 32.92149 21.23099
2006-05-15 08:48:05 51°14.268 2°48.863 13.5812 3.960149 33.007108 21.365828
2006-05-15 08:49:05 51°14.295 2°48.919 13.575 3.958885 33.015267 21.466956
2006-05-15 08:50:05 51°14.319 2°48.979 13.5643 3.962889 33.059824 21.601794
2006-05-15 08:51:05 51°14.343 2°49.039 13.5784 3.958885 33.014603 21.466956
2006-05-15 08:52:05 51°14.366 2°49.098 13.6151 3.955512 32.967994 21.332118
2006-05-15 08:53:05 51°14.396 2°49.15 13.6491 3.94961 32.870209 21.062443
2006-05-15 08:54:05 51°14.432 2°49.195 13.6179 3.942865 32.801055 20.927606
2006-05-15 08:55:05 51°14.466 2°49.241 13.6308 3.939598 32.789186 20.927606
2006-05-15 08:56:05 51°14.498 2°49.287 13.5702 3.93865 32.802125 21.23099
2006-05-15 08:57:05 51°14.529 2°49.337 13.5898 3.942023 32.862496 21.399537
2006-05-15 08:58:05 51°14.56 2°49.386 13.6073 3.936543 32.788489 21.23099
2006-05-15 08:59:05 51°14.594 2°49.442 13.6464 3.936648 32.782878 21.129862
2006-05-15 09:00:05 51°14.63 2°49.499 13.5877 3.929587 32.685163 20.995024
2006-05-15 09:01:05 51°14.665 2°49.558 13.6016 3.925899 32.700863 21.197281
2006-05-15 09:02:05 51°14.7 2°49.617 13.5859 3.928007 32.709907 21.332118
2006-05-15 09:03:05 51°14.718 2°49.701 13.5451 3.92748 32.720144 21.635503
2006-05-15 09:04:05 51°14.704 2°49.803 13.556 3.924635 32.720706 21.669212
2006-05-15 09:05:05 51°14.625 2°49.817 13.6387 3.926531 32.700158 21.568084
2006-05-15 09:06:05 51°14.57 2°49.699 13.6142 3.929271 32.690107 21.702922
2006-05-15 09:07:05 51°14.564 2°49.581 13.5941 3.93043 32.729773 22.006306
2006-05-15 09:08:05 51°14.577 2°49.485 13.5399 3.930957 32.739928 22.040016
2006-05-15 09:09:04 51°14.593 2°49.413 13.513 3.930326 32.781512 22.242272
2006-05-15 09:10:05 51°14.61 2°49.357 13.4811 3.930537 32.812545 22.444529
2006-05-15 09:11:05 51°14.644 2°49.332 13.4709 3.931907 32.843169 22.478238
2006-05-15 09:12:05 51°14.699 2°49.418 13.5295 3.929167 32.799797 22.37711
2006-05-15 09:13:05 51°14.661 2°49.62 13.5093 3.92864 32.784982 22.579366
2006-05-15 09:14:05 51°14.588 2°49.742 13.5891 3.929272 32.797473 23.051298
2006-05-15 09:15:05 51°14.508 2°49.769 13.8757 3.92495 32.63432 22.208563
2006-05-15 09:16:05 51°14.429 2°49.716 13.787 3.917992 32.410609 21.972597
2006-05-15 09:17:04 51°14.362 2°49.624 13.6895 3.924105 32.526021 22.579366
2006-05-15 09:18:04 51°14.304 2°49.514 13.6528 3.934118 32.706826 23.219845
2006-05-15 09:19:05 51°14.259 2°49.42 13.6959 3.936015 32.725718 23.152426
2006-05-15 09:20:05 51°14.224 2°49.344 13.6535 3.939071 32.733032 23.152426
2006-05-15 09:21:05 51°14.192 2°49.279 13.6375 3.942865 32.798422 23.590648
2006-05-15 09:22:05 51°14.163 2°49.218 13.6369 3.944868 32.833462 23.759195
2006-05-15 09:23:04 51°14.135 2°49.161 13.6423 3.943919 32.814121 23.725486
2006-05-15 09:24:05 51°14.107 2°49.104 13.635 3.9455 32.834715 23.961452
2006-05-15 09:25:05 51°14.079 2°49.049 13.6565 3.945078 32.821579 23.927742
2006-05-15 09:26:05 51°14.052 2°48.996 13.6866 3.94434 32.800256 24.096289
2006-05-15 09:27:05 51°14.024 2°48.944 13.7313 3.947396 32.829906 23.961452
2006-05-15 09:28:05 51°13.994 2°48.892 13.7431 3.946658 32.76786 23.52323
2006-05-15 09:29:05 51°13.96 2°48.841 13.6948 3.946868 32.757351 23.590648
2006-05-15 09:30:05 51°13.925 2°48.789 13.6909 3.947291 32.819054 24.096289
2006-05-15 09:31:05 51°13.889 2°48.737 13.6781 3.94708 32.80263 24.197418
2006-05-15 09:32:05 51°13.854 2°48.683 13.6809 3.947291 32.815106 24.568221
2006-05-15 09:33:05 51°13.818 2°48.631 13.6727 3.948661 32.831753 24.837896
2006-05-15 09:34:05 51°13.782 2°48.579 13.6734 3.950663 32.852949 24.871606
2006-05-15 09:35:05 51°13.746 2°48.528 13.6623 3.953719 32.885242 25.276118
2006-05-15 09:36:05 51°13.71 2°48.478 13.6511 3.955722 32.911072 25.74805
2006-05-15 09:37:05 51°13.675 2°48.426 13.6438 3.956776 32.930098 26.489657
2006-05-15 09:38:05 51°13.643 2°48.372 13.6445 3.956881 32.937025 26.826751
2006-05-15 09:39:05 51°13.612 2°48.316 13.6639 3.95509 32.914452 26.658204
2006-05-15 09:40:05 51°13.581 2°48.26 13.6693 3.955406 32.904838 26.489657
2006-05-15 09:41:05 51°13.551 2°48.202 13.6725 3.95667 32.913927 26.725623
2006-05-15 09:42:05 51°13.521 2°48.143 13.6753 3.957724 32.917759 26.86046
2006-05-15 09:43:05 51°13.491 2°48.085 13.6783 3.958883 32.925868 26.658204
2006-05-15 09:44:04 51°13.46 2°48.029 13.6891 3.961202 32.946047 26.89417
2006-05-15 09:45:05 51°13.427 2°47.972 13.6886 3.962782 32.952778 26.725623
2006-05-15 09:46:05 51°13.395 2°47.911 13.7053 3.96489 32.968356 26.624494
2006-05-15 09:47:05 51°13.368 2°47.836 13.7237 3.968578 32.994621 26.927879
2006-05-15 09:48:05 51°13.353 2°47.752 13.6874 3.971951 33.00869 26.489657
2006-05-15 09:49:05 51°13.371 2°47.663 13.6584 3.970581 33.027084 27.568358
2006-05-15 09:50:05 51°13.413 2°47.597 13.6431 3.972689 33.074489 28.208836
2006-05-15 09:51:05 51°13.462 2°47.567 13.6312 3.971635 33.065368 26.927879
2006-05-15 09:52:05 51°13.496 2°47.561 13.601 3.967631 33.043445 26.523366
2006-05-15 09:53:05 51°13.513 2°47.561 13.6122 3.967104 33.059131 26.354819
2006-05-15 09:54:05 51°13.52 2°47.56 13.621 3.966999 33.058816 26.219982
2006-05-15 09:55:05 51°13.528 2°47.575 13.6194 3.965839 33.034104 26.085144
2006-05-15 09:56:05 51°13.568 2°47.73 13.5981 3.966999 33.050182 26.422238
2006-05-15 09:57:05 51°13.623 2°47.953 13.5797 3.963627 33.037438 26.725623
2006-05-15 09:58:05 51°13.683 2°48.162 13.6143 3.956987 32.94594 26.523366
2006-05-15 09:59:05 51°13.746 2°48.341 13.6679 3.954774 32.945905 27.062717
2006-05-15 10:00:05 51°13.804 2°48.519 13.6188 3.951928 32.88446 27.264973
2006-05-15 10:01:05 51°13.863 2°48.696 13.5944 3.945711 32.857779 27.736905
2006-05-15 10:02:05 51°13.922 2°48.872 13.5742 3.941285 32.843087 28.107708
2006-05-15 10:03:05 51°13.981 2°49.05 13.568 3.934225 32.786737 28.208836
2006-05-15 10:04:05 51°14.04 2°49.227 13.557 3.926848 32.716905 28.309965
2006-05-15 10:05:05 51°14.093 2°49.41 13.5466 3.919682 32.667453 29.017862
2006-05-15 10:06:04 51°14.141 2°49.593 13.5551 3.912411 32.595333 29.085281
2006-05-15 10:07:04 51°14.19 2°49.777 13.5535 3.903875 32.520024 28.849315
2006-05-15 10:08:05 51°14.233 2°49.967 13.5656 3.904086 32.52198 29.017862
2006-05-15 10:09:05 51°14.27 2°50.159 13.5189 3.903454 32.518074 29.017862
2006-05-15 10:10:05 51°14.305 2°50.352 13.5334 3.901452 32.534192 29.017862
2006-05-15 10:11:05 51°14.34 2°50.545 13.5659 3.897236 32.476053 28.714477
2006-05-15 10:12:04 51°14.382 2°50.765 13.5773 3.893969 32.424835 28.748187
2006-05-15 10:13:04 51°14.433 2°51.052 13.5387 3.890597 32.399419 28.411093
2006-05-15 10:14:05 51°14.492 2°51.348 13.5643 3.883537 32.348897 27.939161
2006-05-15 10:15:04 51°14.519 2°51.649 13.5635 3.874369 32.249558 27.46723
2006-05-15 10:16:04 51°14.541 2°51.957 13.6082 3.863937 32.137336 27.298683
2006-05-15 10:17:05 51°14.559 2°52.272 13.6574 3.846128 31.944818 27.635777
2006-05-15 10:18:04 51°14.567 2°52.579 13.6649 3.833799 31.78423 27.939161
2006-05-15 10:19:05 51°14.568 2°52.896 13.6815 3.81557 31.615412 28.00658
2006-05-15 10:20:05 51°14.551 2°53.211 13.6401 3.804085 31.505726 28.781896
2006-05-15 10:21:05 51°14.526 2°53.529 13.6652 3.802821 31.518082 30.197691
2006-05-15 10:22:04 51°14.51 2°53.844 13.7307 3.801873 31.502383 30.871879
2006-05-15 10:23:05 51°14.49 2°54.167 13.9243 3.816306 31.477112 29.11899
2006-05-15 10:24:05 51°14.466 2°54.488 13.9553 3.834323 31.599097 29.793178
2006-05-15 10:25:05 51°14.437 2°54.755 13.8524 3.834428 31.592515 30.163982
2006-05-15 10:26:05 51°14.401 2°54.965 13.9419 3.822311 31.519682 30.433657
2006-05-15 10:27:05 51°14.319 2°55.168 14.0867 3.811774 31.37172 31.714614
2006-05-15 10:28:06 51°14.192 2°55.376 14.3128 3.689764 30.076554 32.355093
2006-05-15 10:29:05 51°14.055 2°55.485 14.3831 3.619495 29.304013 31.782033
2006-05-15 10:30:04 51°13.946 2°55.56 14.5347 3.570617 28.805789 31.95058
2006-05-15 10:31:05 51°13.846 2°55.627 14.4787 3.505626 28.148294 32.253965
2006-05-15 10:32:06 51°13.769 2°55.693 14.5715 3.501835 28.1464 32.152836
2006-05-15 10:33:06 51°13.71 2°55.767 14.5775 3.358395 26.804124 36.366512
2006-05-15 10:34:06 51°13.662 2°55.85 14.5551 3.363871 26.872384 38.72617
2006-05-15 10:35:04 51°13.625 2°55.938 14.7033 3.328911 26.571771 35.018136
2006-05-15 10:36:06 51°13.605 2°56.017 14.7382 3.243833 25.694166 33.231537
2006-05-15 10:37:04 51°13.601 2°56.071 14.6292 3.294793 26.166691 32.759606
2006-05-15 10:38:05 51°13.601 2°56.094 14.528 3.371137 26.908853 32.759606
2006-05-15 10:39:05 51°13.601 2°56.098 14.464 3.414946 27.353824 33.164118
2006-05-15 10:40:05 51°13.602 2°56.099 14.4149 3.457811 27.784872 33.669759
2006-05-15 10:41:05 51°13.603 2°56.1 14.3679 3.47245 27.933842 34.107982
2006-05-15 10:42:05 51°13.602 2°56.099 14.3202 3.523429 28.444528 34.917007
2006-05-15 10:43:05 51°13.602 2°56.1 14.2891 3.54439 28.657014 35.692324
2006-05-15 10:44:05 51°13.604 2°56.1 14.2896 3.548814 28.705154 35.860871
2006-05-15 10:45:05 51°13.604 2°56.1 14.2708 3.558189 28.795512 36.265383
2006-05-15 10:46:04 51°13.603 2°56.1 14.2531 3.56019 28.82992 36.669896
2006-05-15 10:47:04 51°13.603 2°56.101 14.2349 3.571883 28.946381 36.973281
2006-05-15 10:48:05 51°13.604 2°56.1 14.2101 3.583154 29.066639 37.0407
2006-05-15 10:49:05 51°13.604 2°56.101 14.1765 3.595268 29.19643 36.602477
2006-05-15 10:50:05 51°13.604 2°56.1 14.1405 3.611386 29.366651 36.164255
2006-05-15 10:51:04 51°13.601 2°56.098 14.1774 3.610754 29.368482 35.658614
2006-05-15 10:52:05 51°13.602 2°56.098 14.1842 3.588211 29.143168 35.456358
2006-05-15 10:53:05 51°13.602 2°56.098 14.1792 3.591898 29.173526 35.557486
2006-05-15 10:54:05 51°13.603 2°56.098 14.1692 3.600746 29.264274 35.490067
2006-05-15 10:55:05 51°13.605 2°56.099 14.1441 3.605908 29.315472 35.557486
2006-05-15 10:56:05 51°13.605 2°56.099 14.1171 3.619603 29.459448 35.726033
2006-05-15 10:57:05 51°13.605 2°56.099 14.1032 3.633824 29.604371 36.265383
2006-05-15 10:58:05 51°13.604 2°56.1 14.0983 3.642252 29.694715 36.703606
2006-05-15 10:59:05 51°13.603 2°56.1 14.1187 3.642568 29.696989 37.00699
2006-05-15 11:00:05 51°13.602 2°56.1 14.1372 3.628136 29.548241 36.872153
2006-05-15 11:01:05 51°13.604 2°56.1 14.1696 3.611807 29.384956 37.00699
2006-05-15 11:02:05 51°13.603 2°56.1 14.1728 3.60496 29.308073 36.973281
2006-05-15 11:03:05 51°13.603 2°56.1 14.1688 3.601694 29.271094 37.00699
2006-05-15 11:04:05 51°13.603 2°56.1 14.1849 3.604222 29.295058 37.0407
2006-05-15 11:05:05 51°13.602 2°56.1 14.1898 3.587895 29.136296 37.242956
2006-05-15 11:06:04 51°13.603 2°56.099 14.2018 3.582944 29.086518 37.276665
2006-05-15 11:07:05 51°13.603 2°56.1 14.2102 3.580416 29.058014 37.310375
2006-05-15 11:08:05 51°13.603 2°56.099 14.2117 3.577782 29.029147 37.377794
2006-05-15 11:09:05 51°13.603 2°56.1 14.2094 3.576413 29.016246 37.445212
2006-05-15 11:10:05 51°13.602 2°56.1 14.2114 3.576413 29.013959 37.546341
2006-05-15 11:11:05 51°13.601 2°56.1 14.2097 3.576307 29.013011 37.613759
2006-05-15 11:12:05 51°13.601 2°56.1 14.2022 3.577571 29.027251 37.647469
2006-05-15 11:13:05 51°13.601 2°56.1 14.2061 3.578203 29.035802 37.816016
2006-05-15 11:14:05 51°13.602 2°56.099 14.196 3.579257 29.044716 37.950853
2006-05-15 11:15:05 51°13.602 2°56.098 14.1813 3.587895 29.133423 38.051982
2006-05-15 11:16:05 51°13.603 2°56.098 14.1756 3.59411 29.1975 38.085691
2006-05-15 11:17:05 51°13.602 2°56.097 14.1593 3.602221 29.277001 38.220529
2006-05-15 11:18:05 51°13.601 2°56.097 14.1508 3.610016 29.358925 38.287947
2006-05-15 11:19:05 51°13.601 2°56.098 14.1302 3.616126 29.422807 38.287947
2006-05-15 11:20:04 51°13.602 2°56.098 14.1327 3.62034 29.467858 38.15311
2006-05-15 11:21:05 51°13.602 2°56.098 14.1213 3.621604 29.481611 38.220529
2006-05-15 11:22:05 51°13.602 2°56.098 14.1218 3.624238 29.513579 38.220529
2006-05-15 11:23:05 51°13.603 2°56.098 14.1249 3.624765 29.516592 38.254238
2006-05-15 11:24:05 51°13.603 2°56.098 14.1227 3.625291 29.521354 38.321657
2006-05-15 11:25:05 51°13.603 2°56.098 14.1152 3.627188 29.541419 38.321657
2006-05-15 11:26:05 51°13.603 2°56.098 14.1071 3.630453 29.57563 38.287947
2006-05-15 11:27:05 51°13.603 2°56.097 14.0958 3.634667 29.619607 38.389076
2006-05-15 11:28:05 51°13.603 2°56.098 14.0938 3.640883 29.68349 38.422785
2006-05-15 11:29:05 51°13.603 2°56.098 14.0852 3.643938 29.714679 38.456494
2006-05-15 11:30:05 51°13.603 2°56.098 14.0856 3.645518 29.73252 38.591332
2006-05-15 11:31:05 51°13.603 2°56.098 14.0777 3.647098 29.7486 38.658751
2006-05-15 11:32:05 51°13.602 2°56.099 14.0869 3.648468 29.76454 38.759879
2006-05-15 11:33:05 51°13.602 2°56.099 14.0801 3.649416 29.769597 38.69246
2006-05-15 11:34:05 51°13.603 2°56.098 14.0856 3.649837 29.77636 38.793589
2006-05-15 11:35:05 51°13.602 2°56.098 14.0826 3.65068 29.778693 38.793589
2006-05-15 11:36:04 51°13.602 2°56.098 14.0827 3.651207 29.787002 38.894717
2006-05-15 11:37:05 51°13.602 2°56.1 14.0819 3.654683 29.820275 38.995845
2006-05-15 11:38:05 51°13.602 2°56.099 14.1038 3.652682 29.798008 38.995845
2006-05-15 11:39:04 51°13.602 2°56.099 14.0941 3.648362 29.74475 38.962136
2006-05-15 11:40:05 51°13.602 2°56.099 14.091 3.64931 29.760987 38.861007
2006-05-15 11:41:05 51°13.602 2°56.1 14.092 3.649311 29.765108 38.928426
2006-05-15 11:42:05 51°13.6 2°56.099 14.1654 3.621604 29.484524 39.231811
2006-05-15 11:43:05 51°13.599 2°56.094 14.2 3.6018 29.273777 39.467777
2006-05-15 11:44:06 51°13.6 2°56.035 14.2193 3.58326 29.079045 39.973418
2006-05-15 11:45:05 51°13.599 2°56.01 14.1868 3.585893 29.102763 41.186956
2006-05-15 11:46:06 51°13.625 2°55.948 14.1513 3.599903 29.249169 41.389212
2006-05-15 11:47:06 51°13.677 2°55.85 14.1926 3.619919 29.458812 41.186956
2006-05-15 11:48:05 51°13.719 2°55.764 14.1848 3.574516 28.991749 42.467913
2006-05-15 11:49:05 51°13.731 2°55.718 14.1547 3.622868 29.456959 45.737725
2006-05-15 11:50:05 51°13.729 2°55.717 14.1488 3.645939 29.683487 45.501759
2006-05-15 11:51:05 51°13.723 2°55.707 14.1093 3.660371 29.822859 46.411913
2006-05-15 11:52:05 51°13.806 2°55.651 14.1976 3.688184 30.105641 48.164802
2006-05-15 11:53:05 51°13.942 2°55.554 14.3528 3.605907 29.2635 44.793862
2006-05-15 11:54:05 51°14.079 2°55.458 14.2854 3.589684 29.05277 42.265657
2006-05-15 11:55:05 51°14.213 2°55.352 14.4367 3.607381 29.196875 41.52405
2006-05-15 11:56:05 51°14.316 2°55.178 14.4634 3.601059 29.089281 41.422922
2006-05-15 11:57:05 51°14.431 2°54.957 14.2883 3.603586 29.023268 40.748734
2006-05-15 11:58:05 51°14.547 2°54.701 14.0416 3.776474 30.88409 40.310512
2006-05-15 11:59:05 51°14.638 2°54.415 14.0448 3.806294 31.261224 38.625042
2006-05-15 12:00:05 51°14.678 2°54.104 14.1458 3.807557 31.215782 37.209247
2006-05-15 12:01:05 51°14.698 2°53.787 13.9504 3.814194 31.21021 36.501349
2006-05-15 12:02:05 51°14.72 2°53.466 13.9666 3.785959 31.121167 37.175537
2006-05-15 12:03:05 51°14.698 2°53.151 13.8581 3.78322 31.116532 36.231674
2006-05-15 12:04:05 51°14.661 2°52.837 13.8105 3.787751 31.212654 35.692324
2006-05-15 12:05:05 51°14.63 2°52.593 13.8017 3.797761 31.333811 35.186683
2006-05-15 12:06:05 51°14.601 2°52.485 13.8711 3.793441 31.289157 34.579913
2006-05-15 12:07:05 51°14.595 2°52.388 13.8228 3.796707 31.286047 34.445076
2006-05-15 12:08:05 51°14.603 2°52.251 13.8245 3.807666 31.42037 34.579913
2006-05-15 12:09:04 51°14.619 2°52.107 13.873 3.816517 31.498521 34.613623
2006-05-15 12:10:05 51°14.681 2°51.992 13.9161 3.820099 31.487448 34.546204
2006-05-15 12:11:05 51°14.744 2°51.926 14.0249 3.830109 31.570493 35.051845
2006-05-15 12:12:05 51°14.793 2°51.869 13.9338 3.829685 31.42334 34.445076
2006-05-15 12:13:04 51°14.84 2°51.827 14.0391 3.823154 31.520507 36.164255
2006-05-15 12:14:05 51°14.878 2°51.78 14.3636 3.830316 31.335384 34.74846
2006-05-15 12:15:05 51°14.908 2°51.723 14.165 3.839587 31.336933 34.984426
2006-05-15 12:16:05 51°14.932 2°51.659 13.7987 3.822625 31.327221 35.995708
2006-05-15 12:17:05 51°14.957 2°51.593 13.6718 3.803451 31.406116 36.669896
2006-05-15 12:18:05 51°14.973 2°51.527 13.7427 3.808405 31.528483 36.737315
2006-05-15 12:19:05 51°14.985 2°51.453 13.7495 3.798605 31.391686 36.501349
2006-05-15 12:20:05 51°14.989 2°51.372 13.8716 3.805664 31.430216 36.197965
2006-05-15 12:21:05 51°14.987 2°51.29 13.8683 3.812301 31.39216 35.928289
2006-05-15 12:22:05 51°14.982 2°51.209 14.117 3.828737 31.472058 35.726033
2006-05-15 12:23:05 51°14.971 2°51.13 13.9324 3.840853 31.468635 35.827161
2006-05-15 12:24:05 51°14.961 2°51.051 13.7906 3.845493 31.6978 35.726033
2006-05-15 12:25:05 51°14.951 2°50.973 13.8367 3.84876 31.817762 35.759742
2006-05-15 12:26:05 51°14.941 2°50.896 13.8066 3.851815 31.792548 35.557486
2006-05-15 12:27:05 51°14.931 2°50.82 13.7451 3.858771 31.904188 35.523777
2006-05-15 12:28:05 51°14.927 2°50.741 13.7291 3.863618 31.978204 35.422648
2006-05-15 12:29:05 51°14.949 2°50.652 13.676 3.870995 32.048767 35.456358
2006-05-15 12:30:05 51°15.003 2°50.583 13.7736 3.877634 32.171767 35.32152
2006-05-15 12:31:05 51°15.083 2°50.58 13.6743 3.876158 32.097025 35.32152
2006-05-15 12:32:05 51°15.162 2°50.649 13.6388 3.872471 32.151122 35.624905
2006-05-15 12:33:05 51°15.215 2°50.762 13.6826 3.865728 32.113894 35.726033
2006-05-15 12:34:05 51°15.238 2°50.874 13.7132 3.852134 31.92791 35.759742
2006-05-15 12:35:04 51°15.222 2°50.954 14.1529 3.844862 31.780608 35.624905
2006-05-15 12:36:05 51°15.158 2°50.907 14.0867 3.856658 31.555436 35.186683
2006-05-15 12:37:04 51°15.073 2°50.714 13.7092 3.885219 32.109353 35.726033
2006-05-15 12:38:05 51°14.974 2°50.483 13.7016 3.889542 32.25533 35.287811
2006-05-15 12:39:05 51°14.88 2°50.25 13.8808 3.902924 32.329799 35.35523
2006-05-15 12:40:06 51°14.785 2°50.011 13.7839 3.912828 32.317243 35.523777
2006-05-15 12:41:04 51°14.697 2°49.783 13.7116 3.918836 32.471511 35.726033
2006-05-15 12:42:05 51°14.603 2°49.543 13.6541 3.925054 32.57843 35.827161
2006-05-15 12:43:05 51°14.508 2°49.307 13.6758 3.925687 32.626099 35.961999
2006-05-15 12:44:05 51°14.414 2°49.07 13.7213 3.9279 32.640707 35.961999
2006-05-15 12:45:05 51°14.321 2°48.832 13.6914 3.93201 32.653895 36.029418
2006-05-15 12:46:05 51°14.226 2°48.597 13.7231 3.937701 32.720343 35.89458
2006-05-15 12:47:05 51°14.134 2°48.359 13.7658 3.954035 32.843382 35.995708
2006-05-15 12:48:05 51°14.066 2°48.181 13.7513 3.973109 32.97519 35.928289
2006-05-15 12:49:05 51°14.031 2°48.106 13.6661 3.98797 33.159846 36.265383
2006-05-15 12:50:05 51°14.027 2°48.104 13.6435 3.987233 33.209556 36.400221
2006-05-15 12:51:05 51°14.04 2°48.118 13.5746 3.988287 33.233355 36.636187
2006-05-15 12:52:05 51°14.057 2°48.136 13.5794 3.985231 33.256378 36.939571
2006-05-15 12:53:05 51°14.074 2°48.158 13.5787 3.986707 33.264089 36.838443
2006-05-15 12:54:05 51°14.092 2°48.182 13.5585 3.98618 33.263199 36.973281
2006-05-15 12:55:05 51°14.11 2°48.208 13.5652 3.983124 33.252146 37.242956
2006-05-15 12:56:05 51°14.129 2°48.235 13.5747 3.98481 33.253792 37.108118
2006-05-15 12:57:05 51°14.146 2°48.263 13.5591 3.985231 33.258385 37.209247
2006-05-15 12:58:05 51°14.164 2°48.291 13.5684 3.984494 33.256202 37.175537
2006-05-15 12:59:05 51°14.181 2°48.321 13.5958 3.985021 33.2591 37.276665
2006-05-15 13:00:05 51°14.197 2°48.351 13.5974 3.988287 33.252052 37.175537
2006-05-15 13:01:05 51°14.213 2°48.381 13.5636 3.985864 33.254236 37.546341
2006-05-15 13:02:05 51°14.229 2°48.349 13.5833 3.984388 33.250538 37.445212
2006-05-15 13:03:05 51°14.287 2°48.24 13.5909 3.986812 33.263732 37.411503
2006-05-15 13:04:05 51°14.391 2°48.238 13.5956 3.990395 33.289716 37.276665
2006-05-15 13:05:05 51°14.467 2°48.317 13.5942 3.99166 33.29546 37.141828
2006-05-15 13:06:05 51°14.517 2°48.411 13.613 3.988182 33.265109 37.209247
2006-05-15 13:07:05 51°14.547 2°48.501 13.6236 3.989025 33.254903 37.0407
2006-05-15 13:08:05 51°14.574 2°48.573 13.6241 3.988498 33.247332 37.108118
2006-05-15 13:09:04 51°14.598 2°48.642 13.6043 3.987339 33.235218 37.276665
2006-05-15 13:10:05 51°14.621 2°48.713 13.6002 3.984704 33.2194 37.377794
2006-05-15 13:11:05 51°14.643 2°48.783 13.5987 3.982596 33.208476 37.478922
2006-05-15 13:12:05 51°14.662 2°48.855 13.5965 3.981015 33.19511 37.647469
2006-05-15 13:13:05 51°14.68 2°48.926 13.6103 3.97817 33.171983 37.748597
2006-05-15 13:14:05 51°14.699 2°48.997 13.6068 3.97954 33.170721 37.613759
2006-05-15 13:15:05 51°14.718 2°49.069 13.599 3.978381 33.161943 37.748597
2006-05-15 13:16:05 51°14.735 2°49.141 13.6277 3.976168 33.1447 37.883435
2006-05-15 13:17:05 51°14.752 2°49.213 13.5984 3.97543 33.126525 37.950853
2006-05-15 13:18:05 51°14.768 2°49.286 13.6182 3.970266 33.096493 38.287947
2006-05-15 13:19:05 51°14.786 2°49.357 13.6132 3.972268 33.091164 37.917144
2006-05-15 13:20:05 51°14.803 2°49.422 13.592 3.96742 33.062069 38.287947
2006-05-15 13:21:05 51°14.823 2°49.494 13.6324 3.96468 33.044576 38.287947
2006-05-15 13:22:05 51°14.844 2°49.574 13.641 3.967631 33.044772 38.254238
2006-05-15 13:23:05 51°14.865 2°49.656 13.6183 3.968052 33.045369 38.287947
2006-05-15 13:24:05 51°14.885 2°49.739 13.6096 3.966155 33.02908 38.321657
2006-05-15 13:25:05 51°14.906 2°49.822 13.616 3.961519 33.00856 38.658751
2006-05-15 13:26:05 51°14.929 2°49.905 13.6414 3.962888 33.002058 38.591332
2006-05-15 13:27:05 51°14.952 2°49.988 13.6675 3.961413 32.984384 38.557623
2006-05-15 13:28:05 51°14.975 2°50.073 13.6833 3.963099 32.967606 38.490204
2006-05-15 13:29:05 51°14.996 2°50.159 13.6691 3.962782 32.952778 38.422785
2006-05-15 13:30:05 51°15.016 2°50.244 13.6384 3.960359 32.946818 38.658751
2006-05-15 13:31:05 51°15.036 2°50.328 13.6366 3.956565 32.931447 38.793589
2006-05-15 13:32:05 51°15.046 2°50.423 13.6313 3.954879 32.925052 38.861007
2006-05-15 13:33:05 51°15.043 2°50.539 13.6252 3.953825 32.913949 38.861007
2006-05-15 13:34:05 51°15.012 2°50.646 13.5954 3.951507 32.904984 39.198101
2006-05-15 13:35:05 51°14.959 2°50.682 13.5555 3.945606 32.873313 39.231811
2006-05-15 13:36:05 51°14.925 2°50.641 13.5505 3.940759 32.857354 39.670033
2006-05-15 13:37:05 51°14.931 2°50.58 13.5796 3.94118 32.861272 39.670033
2006-05-15 13:38:05 51°14.972 2°50.553 13.579 3.945079 32.873705 39.467777
2006-05-15 13:39:05 51°15.025 2°50.575 13.5994 3.945606 32.881245 39.568905
2006-05-15 13:40:05 51°15.071 2°50.654 13.6094 3.951928 32.907576 39.096973
2006-05-15 13:41:05 51°15.09 2°50.87 13.5754 3.951085 32.904375 39.434067
2006-05-15 13:42:05 51°15.085 2°51.225 13.5523 3.941812 32.856572 40.141965
2006-05-15 13:43:05 51°15.073 2°51.603 13.539 3.939178 32.840019 40.175674
2006-05-15 13:44:05 51°15.027 2°51.966 13.5702 3.940548 32.865977 41.186956
2006-05-15 13:45:05 51°14.967 2°52.318 13.6136 3.936648 32.805954 41.793725
2006-05-15 13:46:05 51°14.911 2°52.673 13.6515 3.937596 32.738398 42.703879
2006-05-15 13:47:05 51°14.853 2°53.026 13.9065 3.928427 32.637734 42.703879
2006-05-15 13:48:05 51°14.79 2°53.369 14.0163 3.93559 32.491224 41.186956
2006-05-15 13:49:05 51°14.72 2°53.709 14.0646 3.925894 32.343491 41.726306
2006-05-15 13:50:04 51°14.669 2°54.008 13.9082 3.96731 32.707154 44.32193
2006-05-15 13:51:05 51°14.633 2°54.264 13.8887 3.980063 32.911279 40.647606
2006-05-15 13:52:04 51°14.591 2°54.495 13.8812 3.972897 32.869418 41.186956
2006-05-15 13:53:05 51°14.521 2°54.719 13.8407 3.964361 32.801138 41.793725
2006-05-15 13:54:05 51°14.457 2°54.896 13.8939 3.949923 32.692096 42.231947
2006-05-15 13:55:05 51°14.37 2°55.081 14.0622 3.951292 32.651992 44.524187
2006-05-15 13:56:05 51°14.269 2°55.245 14.3133 3.846754 31.488216 47.355777
2006-05-15 13:57:05 51°14.184 2°55.357 14.4521 3.733379 30.344969 45.501759
2006-05-15 13:58:05 51°14.092 2°55.43 14.301 3.661843 29.636698 43.681452
2006-05-15 13:59:05 51°14.012 2°55.492 14.3517 3.634454 29.427531 43.647742
2006-05-15 14:00:05 51°13.937 2°55.544 14.4619 3.604325 29.138543 45.130956
2006-05-15 14:01:05 51°13.865 2°55.596 14.3677 3.586101 28.937637 46.749007
2006-05-15 14:02:05 51°13.797 2°55.651 14.3073 3.550498 28.617937 46.310785
2006-05-15 14:03:05 51°13.737 2°55.724 14.7234 3.561242 28.73033 46.816426
2006-05-15 14:04:06 51°13.687 2°55.815 14.3308 3.517738 28.229157 46.647879
2006-05-15 14:05:06 51°13.641 2°55.917 14.3724 3.59158 29.058957 47.18723
2006-05-15 14:06:06 51°13.612 2°56.001 14.3204 3.580414 28.958718 45.939982
2006-05-15 14:07:06 51°13.601 2°56.07 14.2891 3.587051 29.050231 45.939982
2006-05-15 14:08:06 51°13.602 2°56.093 14.0548 3.578413 28.97603 45.737725